Time;durP1;ratioP1;P1;durP2;ratioP2;P2;SDS_P1;SDS_P2;PMS_P1;PMS_P2;Temp;Humidity;BMP_temperature;BMP_pressure;BME280_temperature;BME280_humidity;BME280_pressure;Samples;Min_cycle;Max_cycle;Signal;HPM_P1;HPM_P2
2024/02/02 06:00:52;;;;;;;21.60;11.70;;;;;;;0.55;100.00;100061.86;109356;1279;23085;-47
2024/02/02 06:03:20;;;;;;;18.70;12.00;;;;;;;0.56;100.00;100067.39;109863;1273;22843;-48
2024/02/02 06:05:48;;;;;;;16.10;10.10;;;;;;;0.58;100.00;100065.94;109682;1278;22939;-54
2024/02/02 06:08:15;;;;;;;17.40;9.80;;;;;;;0.62;100.00;100071.39;109812;1279;23137;-54
2024/02/02 06:10:44;;;;;;;18.80;10.50;;;;;;;0.66;100.00;100065.54;109618;1279;22228;-52
2024/02/02 06:13:12;;;;;;;16.20;9.90;;;;;;;0.71;100.00;100066.73;109175;1279;22261;-51
2024/02/02 06:15:40;;;;;;;19.90;10.70;;;;;;;0.77;100.00;100072.11;109854;1279;22443;-47
2024/02/02 06:18:07;;;;;;;17.80;10.60;;;;;;;0.85;100.00;100072.89;109829;1272;22798;-47
2024/02/02 06:20:35;;;;;;;17.70;10.30;;;;;;;0.94;100.00;100073.89;109414;1273;22929;-52
2024/02/02 06:23:05;;;;;;;18.80;11.30;;;;;;;1.04;100.00;100077.17;109757;1273;22427;-54
2024/02/02 06:25:37;;;;;;;19.70;9.50;;;;;;;1.16;100.00;100077.41;108446;1273;22679;-53
2024/02/02 06:28:10;;;;;;;15.30;9.40;;;;;;;1.26;100.00;100076.05;109295;1273;22355;-52
2024/02/02 06:30:38;;;;;;;14.60;9.50;;;;;;;1.32;100.00;100088.80;109178;1273;22994;-54
2024/02/02 06:33:46;;;;;;;16.60;10.00;;;;;;;1.35;100.00;100090.61;108981;1272;22950;-53
2024/02/02 06:37:50;;;;;;;16.10;9.80;;;;;;;1.38;100.00;100086.39;108677;1275;23300;-53
2024/02/02 06:40:41;;;;;;;17.90;10.00;;;;;;;1.37;100.00;100089.27;108834;1273;22339;-47
2024/02/02 06:43:27;;;;;;;15.80;10.30;;;;;;;1.37;100.00;100081.55;108861;1276;22529;-52
2024/02/02 06:46:25;;;;;;;20.90;9.00;;;;;;;1.38;100.00;100081.39;109571;1273;22607;-47
2024/02/02 06:49:44;;;;;;;13.60;8.00;;;;;;;1.40;100.00;100077.73;108861;1272;22410;-54
2024/02/02 06:52:50;;;;;;;16.50;9.20;;;;;;;1.43;100.00;100081.58;109376;1279;22326;-52
2024/02/02 06:55:18;;;;;;;17.30;9.10;;;;;;;1.42;100.00;100084.14;109008;1274;23074;-47
2024/02/02 06:57:47;;;;;;;21.40;9.50;;;;;;;1.41;100.00;100086.67;108612;1271;22627;-52
2024/02/02 07:00:17;;;;;;;15.90;9.20;;;;;;;1.39;100.00;100087.27;109254;1273;22750;-53
2024/02/02 07:02:44;;;;;;;17.50;8.30;;;;;;;1.36;100.00;100078.25;109057;1278;22864;-46
2024/02/02 07:05:13;;;;;;;15.60;8.70;;;;;;;1.33;100.00;100085.39;109356;1274;22435;-53
2024/02/02 07:07:40;;;;;;;15.20;8.70;;;;;;;1.37;100.00;100090.66;109114;1279;23217;-46
2024/02/02 07:10:16;;;;;;;19.80;9.10;;;;;;;1.45;100.00;100093.52;109509;1274;22330;-47
2024/02/02 07:12:57;;;;;;;13.70;8.70;;;;;;;1.55;100.00;100089.55;108687;1279;25258;-48
2024/02/02 07:15:49;;;;;;;15.00;8.10;;;;;;;1.65;100.00;100096.73;108958;1263;22561;-52
2024/02/02 07:18:43;;;;;;;20.80;9.30;;;;;;;1.75;100.00;100103.96;109531;1275;22759;-47
2024/02/02 07:21:14;;;;;;;18.70;10.60;;;;;;;1.84;100.00;100096.16;109239;1274;23217;-55
2024/02/02 07:23:44;;;;;;;15.00;7.80;;;;;;;1.90;100.00;100100.98;108169;1267;22591;-52
2024/02/02 07:26:33;;;;;;;18.30;8.20;;;;;;;1.95;100.00;100094.61;109417;1266;23078;-54
2024/02/02 07:29:02;;;;;;;12.00;6.70;;;;;;;2.00;100.00;100098.05;109474;1280;22280;-46
2024/02/02 07:31:42;;;;;;;15.90;7.30;;;;;;;2.05;100.00;100095.27;109500;1273;23534;-47
2024/02/02 07:34:25;;;;;;;15.50;8.30;;;;;;;2.12;100.00;100101.52;109599;1279;22847;-46
2024/02/02 07:36:53;;;;;;;14.80;7.80;;;;;;;2.16;100.00;100099.73;109538;1274;22767;-48
2024/02/02 07:39:27;;;;;;;14.10;7.30;;;;;;;2.21;100.00;100103.65;109649;1273;22489;-47
2024/02/02 07:41:55;;;;;;;12.50;6.60;;;;;;;2.26;100.00;100105.56;108352;1280;22959;-47
2024/02/02 07:44:24;;;;;;;11.90;7.00;;;;;;;2.31;100.00;100106.73;109629;1273;22301;-47
2024/02/02 07:46:52;;;;;;;12.80;6.50;;;;;;;2.35;100.00;100108.77;109595;1280;22418;-52
2024/02/02 07:49:20;;;;;;;14.40;6.90;;;;;;;2.40;100.00;100112.70;109675;1273;23081;-54
2024/02/02 07:51:48;;;;;;;12.00;6.60;;;;;;;2.46;100.00;100115.26;109752;1267;22328;-46
2024/02/02 07:54:16;;;;;;;16.20;8.00;;;;;;;2.51;100.00;100115.59;109402;1276;22425;-48
2024/02/02 07:56:43;;;;;;;15.00;6.90;;;;;;;2.56;100.00;100115.08;109220;1275;24211;-52
2024/02/02 07:59:13;;;;;;;11.40;6.70;;;;;;;2.62;100.00;100118.33;109698;1272;22563;-47
2024/02/02 08:01:40;;;;;;;17.10;7.10;;;;;;;2.70;100.00;100124.39;109280;1273;22538;-52
2024/02/02 08:04:09;;;;;;;13.00;6.70;;;;;;;2.77;100.00;100124.26;109756;1273;22339;-55
2024/02/02 08:06:37;;;;;;;13.20;7.00;;;;;;;2.83;100.00;100127.73;109480;1274;22412;-47
2024/02/02 08:09:09;;;;;;;17.90;6.00;;;;;;;2.89;100.00;100133.04;109405;1272;23218;-54
2024/02/02 08:11:39;;;;;;;18.90;6.50;;;;;;;2.87;100.00;100131.79;109325;1273;22374;-48
2024/02/02 08:14:12;;;;;;;13.50;6.50;;;;;;;2.87;100.00;100138.84;108647;1273;22535;-53
2024/02/02 08:16:42;;;;;;;16.20;6.00;;;;;;;2.89;100.00;100131.50;109079;1276;22453;-47
2024/02/02 08:19:11;;;;;;;14.40;6.00;;;;;;;2.95;100.00;100135.27;109396;1279;22477;-56
2024/02/02 08:21:39;;;;;;;12.60;5.80;;;;;;;3.02;100.00;100139.27;108505;1275;22317;-54
2024/02/02 08:24:07;;;;;;;17.30;6.50;;;;;;;3.09;100.00;100141.70;109697;1272;22226;-48
2024/02/02 08:26:35;;;;;;;12.10;5.70;;;;;;;3.13;100.00;100142.48;109768;1273;22260;-47
2024/02/02 08:29:04;;;;;;;12.60;5.40;;;;;;;3.18;100.00;100142.48;108747;1278;22543;-52
2024/02/02 08:31:33;;;;;;;16.10;7.30;;;;;;;3.30;100.00;100145.20;109247;1278;22221;-47
2024/02/02 08:34:02;;;;;;;11.10;5.00;;;;;;;3.39;100.00;100148.73;109632;1278;22426;-47
2024/02/02 08:36:30;;;;;;;11.70;5.50;;;;;;;3.45;100.00;100152.49;109187;1279;22254;-48
2024/02/02 08:38:58;;;;;;;9.50;4.80;;;;;;;3.49;100.00;100151.73;109511;1278;23091;-46
2024/02/02 08:41:26;;;;;;;11.30;5.70;;;;;;;3.55;98.58;100148.09;109735;1273;22429;-53
2024/02/02 08:43:55;;;;;;;9.90;4.30;;;;;;;3.55;97.18;100154.50;109826;1273;22868;-51
2024/02/02 08:46:23;;;;;;;14.10;4.60;;;;;;;3.52;96.21;100158.53;108924;1278;22433;-47
2024/02/02 08:48:50;;;;;;;11.80;4.50;;;;;;;3.48;96.67;100158.45;109765;1272;22359;-48
2024/02/02 08:51:22;;;;;;;8.70;4.00;;;;;;;3.51;97.38;100160.24;109706;1278;22403;-47
2024/02/02 08:54:08;;;;;;;9.30;3.70;;;;;;;3.53;96.44;100162.55;109646;1274;22533;-53
2024/02/02 08:56:36;;;;;;;8.00;2.80;;;;;;;3.51;93.58;100160.42;108835;1277;22348;-47
2024/02/02 08:59:16;;;;;;;6.30;2.30;;;;;;;3.45;89.16;100164.41;108520;1275;22372;-52
2024/02/02 09:01:44;;;;;;;8.50;2.50;;;;;;;3.37;88.45;100167.27;109715;1274;23119;-46
2024/02/02 09:04:46;;;;;;;9.50;2.90;;;;;;;3.34;87.99;100164.10;109577;1279;22981;-46
2024/02/02 09:07:14;;;;;;;7.10;2.40;;;;;;;3.42;86.88;100163.97;109497;1278;22988;-54
2024/02/02 09:09:42;;;;;;;11.80;2.90;;;;;;;3.51;84.32;100161.98;109532;1277;22338;-47
2024/02/02 09:12:10;;;;;;;9.70;3.30;;;;;;;3.59;83.95;100159.77;109693;1273;23411;-47
2024/02/02 09:14:39;;;;;;;12.00;2.90;;;;;;;3.67;84.02;100156.69;109317;1279;22404;-52
2024/02/02 09:20:42;;;;;;;6.60;2.70;;;;;;;3.61;82.60;100160.84;109204;1275;22707;-52
2024/02/02 09:23:54;;;;;;;12.50;2.90;;;;;;;3.46;82.96;100167.52;109645;1279;23169;-47
2024/02/02 09:31:22;;;;;;;6.60;2.40;;;;;;;3.24;82.48;100159.34;109373;1278;22932;-52
2024/02/02 09:34:38;;;;;;;7.90;2.30;;;;;;;3.35;81.29;100162.06;109203;1274;22617;-47
2024/02/02 09:37:46;;;;;;;9.70;2.00;;;;;;;3.56;81.29;100154.16;109769;1266;22281;-46
2024/02/02 09:40:39;;;;;;;5.60;1.40;;;;;;;3.77;77.71;100152.64;109492;1259;23170;-53
2024/02/02 09:43:48;;;;;;;6.80;2.10;;;;;;;3.90;75.74;100145.88;109417;1273;22431;-54
2024/02/02 09:46:44;;;;;;;5.10;1.70;;;;;;;3.88;75.35;100148.75;108976;1276;26532;-47
2024/02/02 09:49:24;;;;;;;11.50;2.20;;;;;;;3.81;76.20;100151.17;108931;1273;22384;-52
2024/02/02 09:52:02;;;;;;;5.00;2.00;;;;;;;3.75;77.30;100142.58;108910;1278;22462;-52
2024/02/02 09:54:55;;;;;;;9.70;2.80;;;;;;;3.76;78.29;100140.02;109747;1278;22892;-53
2024/02/02 09:58:47;;;;;;;5.70;2.30;;;;;;;3.79;77.78;100138.54;109585;1267;22462;-52
2024/02/02 10:02:07;;;;;;;6.20;2.50;;;;;;;3.75;77.69;100136.54;108988;1275;22943;-52
2024/02/02 10:05:07;;;;;;;11.70;2.40;;;;;;;3.65;77.74;100140.79;109596;1273;23656;-45
2024/02/02 10:07:51;;;;;;;;;;;;;;;3.65;77.21;100141.45;109394;1273;25391;-48
2024/02/02 10:10:42;;;;;;;8.50;2.10;;;;;;;3.71;75.84;100144.02;108590;1273;23527;-46
2024/02/02 10:13:15;;;;;;;9.70;2.60;;;;;;;3.80;75.45;100144.43;109594;1276;22968;-52
2024/02/02 10:15:46;;;;;;;8.90;2.30;;;;;;;3.90;73.53;100136.39;109491;1279;22399;-46
2024/02/02 10:18:33;;;;;;;8.50;2.60;;;;;;;3.88;73.32;100138.77;108478;1274;26032;-53
2024/02/02 10:22:04;;;;;;;7.60;2.50;;;;;;;3.80;75.04;100140.11;109356;1274;22443;-52
2024/02/02 10:25:51;;;;;;;7.50;1.90;;;;;;;3.78;75.47;100134.91;108727;1286;23163;-47
2024/02/02 10:29:20;;;;;;;7.00;2.30;;;;;;;4.21;74.17;100130.73;109155;1282;22637;-47
2024/02/02 10:32:42;;;;;;;9.20;2.60;;;;;;;4.80;71.23;100130.98;108142;1286;22580;-48
2024/02/02 10:35:30;;;;;;;6.80;2.20;;;;;;;4.80;69.60;100125.46;108548;1290;22435;-53
2024/02/02 10:38:28;;;;;;;8.90;2.40;;;;;;;4.62;69.11;100123.52;107129;1287;24723;-53
2024/02/02 10:41:42;;;;;;;3.70;1.50;;;;;;;4.60;71.07;100122.61;107676;1286;22533;-54
2024/02/02 10:44:39;;;;;;;12.90;3.30;;;;;;;4.69;70.51;100129.02;107683;1288;23249;-47
2024/02/02 10:47:40;;;;;;;12.80;4.40;;;;;;;4.57;71.09;100131.02;107902;1284;22594;-53
2024/02/02 10:50:24;;;;;;;13.90;5.30;;;;;;;4.37;71.99;100136.98;107959;1286;23319;-54
2024/02/02 10:53:27;;;;;;;7.80;3.10;;;;;;;4.21;71.76;100140.74;107924;1290;22342;-55
2024/02/02 10:56:25;;;;;;;7.30;2.50;;;;;;;4.37;70.32;100139.04;107588;1283;23276;-47
2024/02/02 10:59:18;;;;;;;7.70;2.70;;;;;;;4.90;69.40;100135.34;107827;1281;520942;-48
2024/02/02 11:02:24;;;;;;;7.60;1.90;;;;;;;5.21;69.32;100142.17;108329;1280;22440;-53
2024/02/02 11:05:09;;;;;;;15.70;5.60;;;;;;;5.20;67.01;100141.80;108823;1280;23140;-50
2024/02/02 11:07:43;;;;;;;10.90;3.10;;;;;;;4.91;68.00;100140.88;108692;1272;22535;-53
2024/02/02 11:10:23;;;;;;;8.30;2.80;;;;;;;4.66;68.36;100146.41;109206;1274;22924;-47
2024/02/02 11:13:34;;;;;;;9.60;2.80;;;;;;;4.50;68.24;100150.23;109587;1275;22793;-48
2024/02/02 11:16:25;;;;;;;9.40;2.50;;;;;;;4.45;68.06;100152.00;109319;1274;23425;-55
2024/02/02 11:24:01;;;;;;;5.00;1.50;;;;;;;4.65;71.12;100149.84;109576;1279;22982;-55
2024/02/02 11:27:49;;;;;;;9.10;2.20;;;;;;;4.75;68.62;100151.95;109349;1278;22203;-47
2024/02/02 11:31:37;;;;;;;8.00;2.80;;;;;;;5.21;68.05;100148.05;109519;1284;22251;-53
2024/02/02 11:35:50;;;;;;;13.90;3.30;;;;;;;5.11;65.93;100147.52;109479;1284;22827;-49
2024/02/02 11:52:14;;;;;;;5.00;2.10;;;;;;;4.85;69.38;100155.10;109056;1290;22454;-48
2024/02/02 11:55:29;;;;;;;11.40;3.70;;;;;;;5.41;66.82;100163.14;108022;1283;22593;-53
2024/02/02 11:58:28;;;;;;;11.00;3.50;;;;;;;5.39;64.97;100163.10;108864;1286;22430;-53
2024/02/02 12:02:10;;;;;;;7.90;4.80;;;;;;;4.98;62.05;100165.58;108753;1286;24059;-49
2024/02/02 12:08:00;;;;;;;8.80;2.80;;;;;;;4.28;64.72;100175.11;109081;1281;23480;-54
2024/02/02 12:10:28;;;;;;;10.10;2.10;;;;;;;4.21;66.01;100180.29;109014;1279;22212;-53
2024/02/02 12:12:59;;;;;;;5.70;1.70;;;;;;;4.18;67.25;100183.69;109102;1286;23603;-54
2024/02/02 12:15:28;;;;;;;6.30;2.80;;;;;;;4.16;67.44;100182.25;109088;1278;22318;-49
2024/02/02 12:17:56;;;;;;;4.60;2.40;;;;;;;4.15;68.03;100176.67;109202;1280;22344;-47
2024/02/02 12:20:29;;;;;;;12.60;6.50;;;;;;;4.13;68.73;100178.36;109279;1279;22163;-53
2024/02/02 12:22:57;;;;;;;7.10;2.80;;;;;;;4.08;69.83;100180.66;109705;1279;22369;-53
2024/02/02 12:25:25;;;;;;;6.30;2.40;;;;;;;4.02;70.05;100181.90;109746;1278;23281;-53
2024/02/02 12:27:53;;;;;;;10.80;2.20;;;;;;;3.96;71.29;100187.09;109734;1275;22300;-47
2024/02/02 12:30:21;;;;;;;5.60;1.60;;;;;;;3.88;72.12;100191.04;109771;1278;22264;-53
2024/02/02 12:32:58;;;;;;;10.60;2.70;;;;;;;3.81;72.94;100193.98;109828;1275;22193;-46
2024/02/02 12:35:27;;;;;;;13.40;3.50;;;;;;;3.75;73.90;100197.96;109765;1279;22258;-47
2024/02/02 12:37:56;;;;;;;10.70;4.70;;;;;;;3.70;74.47;100200.43;109503;1275;22519;-55
2024/02/02 12:40:25;;;;;;;7.10;2.50;;;;;;;3.65;74.88;100199.95;109254;1279;22506;-53
2024/02/02 12:42:56;;;;;;;17.60;4.30;;;;;;;3.60;75.05;100201.70;109839;1274;23181;-55
2024/02/02 12:45:24;;;;;;;21.70;6.40;;;;;;;3.56;75.39;100208.15;109704;1276;22557;-48
2024/02/02 12:47:52;;;;;;;28.20;12.50;;;;;;;3.52;75.07;100204.58;108749;1278;22236;-48
2024/02/02 12:50:21;;;;;;;17.70;6.60;;;;;;;3.46;74.95;100208.76;106971;1279;25443;-54
2024/02/02 12:52:53;;;;;;;7.20;2.70;;;;;;;3.40;75.04;100208.58;108619;1278;22348;-47
2024/02/02 12:55:21;;;;;;;16.00;5.60;;;;;;;3.35;75.57;100209.82;109223;1273;22295;-53
2024/02/02 12:57:51;;;;;;;14.30;5.90;;;;;;;3.32;75.95;100210.62;109807;1273;22202;-54
2024/02/02 13:00:18;;;;;;;15.30;5.10;;;;;;;3.30;76.50;100208.13;109863;1272;22428;-54
2024/02/02 13:02:51;;;;;;;14.90;5.00;;;;;;;3.28;76.98;100209.63;108668;1265;22926;-46
2024/02/02 13:05:22;;;;;;;14.50;4.60;;;;;;;3.28;77.43;100214.44;109762;1278;22417;-55
2024/02/02 13:07:51;;;;;;;14.20;5.10;;;;;;;3.28;77.98;100214.80;109786;1278;22278;-48
2024/02/02 13:10:44;;;;;;;14.80;4.40;;;;;;;3.29;78.11;100216.54;109766;1279;22840;-49
2024/02/02 13:13:12;;;;;;;9.20;3.00;;;;;;;3.30;78.73;100217.26;109608;1279;22993;-45
2024/02/02 13:15:40;;;;;;;7.70;2.60;;;;;;;3.33;79.11;100217.52;109780;1272;22395;-47
2024/02/02 13:18:12;;;;;;;8.50;2.40;;;;;;;3.35;79.01;100218.08;109757;1279;22385;-47
2024/02/02 13:20:45;;;;;;;11.20;1.90;;;;;;;3.36;79.28;100221.75;109840;1278;22278;-47
2024/02/02 13:23:23;;;;;;;10.50;2.10;;;;;;;3.39;79.36;100225.61;109872;1278;22895;-45
2024/02/02 13:26:03;;;;;;;5.60;1.80;;;;;;;3.41;79.53;100230.67;109827;1279;22240;-60
2024/02/02 13:28:40;;;;;;;4.00;2.00;;;;;;;3.42;79.40;100230.39;109821;1279;22806;-46
2024/02/02 13:31:12;;;;;;;7.80;2.10;;;;;;;3.43;78.90;100229.02;109881;1278;24242;-54
2024/02/02 13:33:41;;;;;;;8.50;1.80;;;;;;;3.41;78.82;100228.80;109874;1278;22267;-56
2024/02/02 13:36:16;;;;;;;6.00;1.90;;;;;;;3.38;78.63;100228.73;109993;1278;23160;-48
2024/02/02 13:38:46;;;;;;;8.40;2.20;;;;;;;3.37;78.31;100225.74;109914;1279;22229;-55
2024/02/02 13:41:19;;;;;;;6.60;2.10;;;;;;;3.38;78.40;100223.70;109932;1278;22208;-56
2024/02/02 13:44:02;;;;;;;;;;;;;;;3.40;77.87;100223.76;109973;1278;22422;-48
2024/02/02 13:46:35;;;;;;;14.80;3.90;;;;;;;3.40;76.08;100224.10;110065;1278;24212;-57
2024/02/02 13:49:05;;;;;;;8.00;2.60;;;;;;;3.37;74.71;100226.79;107959;1278;23024;-49
2024/02/02 13:51:36;;;;;;;6.00;1.80;;;;;;;3.34;73.66;100230.14;108853;1273;22996;-57
2024/02/02 13:54:08;;;;;;;8.50;1.70;;;;;;;3.30;73.59;100230.20;106910;1280;22230;-48
2024/02/02 13:56:36;;;;;;;8.30;1.90;;;;;;;3.27;73.65;100231.31;107062;1278;22546;-52
2024/02/02 13:59:04;;;;;;;5.10;1.60;;;;;;;3.24;74.21;100231.21;107729;1279;22543;-48
2024/02/02 14:01:31;;;;;;;8.30;2.40;;;;;;;3.20;74.66;100230.27;107127;1279;22537;-48
2024/02/02 14:03:59;;;;;;;5.20;1.40;;;;;;;3.17;74.49;100236.20;107968;1279;22535;-48
2024/02/02 14:06:28;;;;;;;5.90;1.60;;;;;;;3.14;74.99;100234.39;107971;1279;24771;-53
2024/02/02 14:08:56;;;;;;;6.80;1.90;;;;;;;3.13;75.41;100232.28;109056;1278;22461;-47
2024/02/02 14:11:25;;;;;;;10.30;1.70;;;;;;;3.11;76.11;100232.40;109572;1278;23333;-48
2024/02/02 14:13:54;;;;;;;6.90;2.00;;;;;;;3.10;76.67;100234.63;109051;1278;22302;-52
2024/02/02 14:16:22;;;;;;;5.20;2.20;;;;;;;3.08;77.22;100231.98;108857;1278;22397;-47
2024/02/02 14:19:03;;;;;;;6.20;1.90;;;;;;;3.08;77.80;100229.21;108158;1278;22536;-46
